Terminal Aerodrome Forecast
Issued by NWS

Current Version | Previous Version | Text Only | Print | Product List | Glossary On
Versions: 1 2 3 4 5 6 7 8 9 10 11 12 13 14 15 16 17 18 19
000
FTUS42 KGSP 251700
TAFAND
TAF
KAND 251737Z 2518/2618 08006KT P6SM SCT030 BKN050
      TEMPO 2518/2520 BKN030
     FM252300 17004KT P6SM SCT050
     FM260900 00000KT 5SM BR SCT250
     FM261300 00000KT P6SM FEW250
     FM261500 24006KT P6SM FEW040=

USA.gov is the U.S. government's official web portal to all federal, state and local government web resources and services.